createdAt,value
2023-02-13T00:00:49.636Z,19.43
2023-02-13T00:03:16.977Z,19.40
2023-02-13T00:05:44.328Z,19.60
2023-02-13T00:08:11.496Z,21.60
2023-02-13T00:10:38.809Z,19.07
2023-02-13T00:13:05.992Z,20.03
2023-02-13T00:15:33.915Z,19.73
2023-02-13T00:18:02.512Z,22.53
2023-02-13T00:20:29.794Z,17.67
2023-02-13T00:22:59.633Z,20.93
2023-02-13T00:25:26.903Z,17.43
2023-02-13T00:27:54.236Z,20.13
2023-02-13T00:30:22.449Z,21.77
2023-02-13T00:32:51.522Z,18.63
2023-02-13T00:35:18.981Z,21.07
2023-02-13T00:37:46.252Z,18.97
2023-02-13T00:40:14.706Z,19.20
2023-02-13T00:42:41.935Z,21.27
2023-02-13T00:45:09.900Z,17.40
2023-02-13T00:47:37.025Z,18.23
2023-02-13T00:50:04.679Z,16.77
2023-02-13T00:52:31.944Z,20.17
2023-02-13T00:54:59.214Z,19.57
2023-02-13T00:57:26.398Z,19.23
2023-02-13T00:59:53.606Z,22.27
2023-02-13T01:02:20.830Z,18.30
2023-02-13T01:04:48.036Z,19.47
2023-02-13T01:07:16.641Z,18.47
2023-02-13T01:09:45.617Z,19.30
2023-02-13T01:12:12.729Z,18.07
2023-02-13T01:14:40.031Z,15.30
2023-02-13T01:17:07.274Z,20.30
2023-02-13T01:19:35.565Z,19.50
2023-02-13T01:22:02.799Z,16.73
2023-02-13T01:24:33.365Z,16.80
2023-02-13T01:27:02.804Z,19.17
2023-02-13T01:29:30.646Z,18.57
2023-02-13T01:31:58.377Z,17.77
2023-02-13T01:34:29.164Z,18.00
2023-02-13T01:36:56.376Z,18.43
2023-02-13T01:39:25.350Z,19.33
2023-02-13T01:41:52.601Z,15.17
2023-02-13T01:44:49.848Z,16.23
2023-02-13T01:47:38.341Z,16.13
2023-02-13T01:50:33.666Z,12.23
2023-02-13T01:53:07.024Z,13.30
2023-02-13T01:55:41.325Z,14.37
2023-02-13T01:58:14.764Z,14.27
2023-02-13T02:00:44.330Z,17.70
2023-02-13T02:03:34.324Z,14.00
2023-02-13T02:06:11.043Z,16.97
2023-02-13T02:08:39.409Z,16.30
2023-02-13T02:11:12.162Z,18.07
2023-02-13T02:13:39.429Z,18.03
2023-02-13T02:16:10.560Z,19.53
2023-02-13T02:18:37.788Z,16.20
2023-02-13T02:21:42.568Z,18.53
2023-02-13T02:24:47.542Z,18.43
2023-02-13T02:27:41.076Z,15.33
2023-02-13T02:30:25.509Z,22.17
2023-02-13T02:33:03.620Z,19.07
2023-02-13T02:35:43.878Z,17.33
2023-02-13T02:38:38.791Z,16.63
2023-02-13T02:41:42.788Z,16.03
2023-02-13T02:44:49.610Z,13.47
2023-02-13T02:47:44.041Z,17.80
2023-02-13T02:50:36.081Z,15.63
2023-02-13T02:53:33.969Z,15.50
2023-02-13T02:56:06.619Z,17.17
2023-02-13T02:59:09.340Z,15.60
2023-02-13T03:01:57.635Z,15.53
2023-02-13T03:04:52.333Z,14.33
2023-02-13T03:07:20.890Z,19.77
2023-02-13T03:10:14.728Z,14.67
2023-02-13T03:13:11.751Z,16.73
2023-02-13T03:16:02.279Z,17.17
2023-02-13T03:18:51.937Z,13.07
2023-02-13T03:22:10.979Z,14.93
2023-02-13T03:24:40.994Z,14.53
2023-02-13T03:27:11.101Z,14.40
2023-02-13T03:30:08.735Z,15.73
2023-02-13T03:32:54.817Z,14.57
2023-02-13T03:36:11.359Z,15.40
2023-02-13T03:39:28.482Z,16.03
2023-02-13T03:42:11.052Z,16.40
2023-02-13T03:45:27.260Z,15.33
2023-02-13T03:47:57.989Z,16.80
2023-02-13T03:50:28.021Z,19.87
2023-02-13T03:53:11.869Z,16.53
2023-02-13T03:56:05.611Z,16.07
2023-02-13T03:59:00.147Z,17.00
2023-02-13T04:01:32.367Z,14.50
2023-02-13T04:04:25.746Z,12.20
2023-02-13T04:06:57.719Z,13.80
2023-02-13T04:09:27.936Z,11.37
2023-02-13T04:12:09.495Z,12.87
2023-02-13T04:14:50.135Z,10.13
2023-02-13T04:17:31.429Z,10.53
2023-02-13T04:19:58.652Z,10.50
2023-02-13T04:22:26.057Z,10.93
2023-02-13T04:24:53.385Z,10.03
2023-02-13T12:29:01.526Z,11.93
2023-02-13T12:31:58.769Z,10.25
2023-02-13T12:34:43.418Z,12.10
2023-02-13T12:37:35.166Z,16.45
2023-02-13T12:40:45.018Z,10.10
2023-02-13T12:43:32.147Z,15.52
2023-02-13T12:46:26.710Z,10.88
2023-02-13T12:49:17.553Z,8.27
2023-02-13T12:52:12.964Z,10.75
2023-02-13T12:55:10.304Z,10.50
2023-02-13T12:58:01.547Z,12.27
2023-02-13T13:00:57.532Z,8.93
2023-02-13T13:04:02.255Z,10.87
2023-02-13T13:06:57.367Z,10.13
2023-02-13T13:09:42.692Z,8.87
2023-02-13T13:12:20.550Z,10.77
2023-02-13T13:15:08.382Z,8.97
2023-02-13T13:17:59.486Z,8.80
2023-02-13T13:21:08.835Z,8.97
2023-02-13T13:23:46.320Z,8.17
2023-02-13T13:26:23.302Z,14.60
2023-02-13T13:28:55.005Z,9.20
2023-02-13T13:31:26.699Z,8.90
2023-02-13T13:33:58.935Z,12.03
2023-02-13T13:36:48.636Z,9.03
2023-02-13T13:39:26.674Z,10.83
2023-02-13T13:42:28.605Z,13.67
2023-02-13T13:45:05.591Z,47.10
2023-02-13T13:47:52.117Z,42.90
2023-02-13T13:50:21.735Z,13.47
2023-02-13T13:53:25.652Z,10.30
2023-02-13T13:55:53.178Z,9.80
2023-02-13T13:58:39.984Z,8.17
2023-02-13T14:01:40.028Z,10.80
2023-02-13T14:04:33.556Z,8.97
2023-02-13T14:07:02.090Z,8.90
2023-02-13T14:09:40.334Z,10.73
2023-02-13T14:12:29.186Z,7.97
2023-02-13T14:14:58.736Z,16.30
2023-02-13T14:17:44.820Z,20.50
2023-02-13T14:20:40.773Z,24.17
2023-02-13T14:23:20.327Z,17.93
2023-02-13T14:25:48.404Z,10.70
2023-02-13T14:28:25.545Z,8.03
2023-02-13T14:31:10.814Z,11.27
2023-02-13T14:33:38.688Z,12.30
2023-02-13T14:36:21.773Z,12.50
2023-02-13T14:38:58.023Z,13.57
2023-02-13T14:41:54.629Z,14.97
2023-02-13T14:44:32.837Z,12.40
2023-02-13T14:47:05.000Z,13.13
2023-02-13T14:49:38.551Z,10.60
2023-02-13T14:52:26.828Z,15.90
2023-02-13T14:55:02.529Z,8.27
2023-02-13T14:57:34.703Z,7.30
2023-02-13T15:00:12.965Z,3.60
2023-02-13T15:02:53.325Z,5.27
2023-02-13T15:05:21.305Z,5.20
2023-02-13T15:07:52.896Z,6.27
2023-02-13T15:10:45.192Z,3.67
2023-02-13T15:13:41.233Z,5.43
2023-02-13T15:16:15.156Z,6.13
2023-02-13T15:18:45.493Z,18.10
2023-02-13T15:21:17.630Z,33.40
2023-02-13T15:23:57.839Z,7.27
2023-02-13T15:26:28.997Z,13.27
2023-02-13T15:29:17.483Z,15.93
2023-02-13T15:31:53.033Z,7.73
2023-02-13T15:34:36.041Z,9.50
2023-02-13T15:37:03.415Z,13.80
2023-02-13T15:39:32.575Z,14.37
2023-02-13T15:42:03.143Z,10.63
2023-02-13T15:44:37.306Z,5.87
2023-02-13T15:47:34.464Z,4.70
2023-02-13T15:50:01.854Z,4.87
2023-02-13T15:52:34.718Z,9.27
2023-02-13T15:55:02.450Z,6.67
2023-02-13T15:57:30.534Z,11.00
2023-02-13T15:59:59.615Z,8.97
2023-02-13T16:02:40.596Z,5.50
2023-02-13T16:05:11.342Z,7.70
2023-02-13T16:07:53.336Z,7.03
2023-02-13T16:10:49.762Z,6.50
2023-02-13T16:13:20.893Z,5.77
2023-02-13T16:15:48.278Z,6.10
2023-02-13T16:18:20.453Z,8.67
2023-02-13T16:20:54.933Z,10.00
2023-02-13T16:23:22.934Z,8.73
2023-02-13T16:25:50.237Z,6.47
2023-02-13T16:28:23.604Z,7.70
2023-02-13T16:31:03.265Z,12.80
2023-02-13T16:33:32.284Z,13.17
2023-02-13T16:36:16.635Z,17.33
2023-02-13T16:38:51.380Z,20.23
2023-02-13T16:41:25.916Z,19.97
2023-02-13T16:43:54.591Z,21.63
2023-02-13T16:46:39.734Z,18.20
2023-02-13T16:49:17.525Z,15.63
2023-02-13T16:51:51.961Z,12.43
2023-02-13T16:54:38.540Z,11.60
2023-02-13T16:57:14.928Z,15.17
2023-02-13T16:59:48.198Z,10.93
2023-02-13T17:02:27.548Z,8.27
2023-02-13T17:05:12.109Z,13.10
2023-02-13T17:07:41.788Z,8.20
2023-02-13T17:10:19.864Z,9.47
2023-02-13T17:12:48.844Z,6.93
2023-02-13T17:15:20.491Z,6.73
2023-02-13T17:17:48.345Z,10.00
2023-02-13T17:20:24.848Z,16.07
2023-02-13T17:22:55.050Z,11.00
2023-02-13T17:25:22.973Z,9.17
2023-02-13T17:27:52.704Z,10.83
2023-02-13T17:30:23.641Z,10.33
2023-02-13T17:32:57.355Z,9.60
2023-02-13T17:35:25.443Z,10.53
2023-02-13T17:37:52.677Z,9.93
2023-02-13T17:40:22.983Z,9.40
2023-02-13T17:42:55.384Z,9.17
2023-02-13T17:45:25.656Z,10.07
2023-02-13T17:47:53.868Z,9.37
2023-02-13T17:50:22.256Z,9.27
2023-02-13T17:52:49.850Z,9.13
2023-02-13T17:55:21.379Z,10.63
2023-02-13T17:57:49.276Z,10.40
2023-02-13T18:00:17.994Z,8.23
2023-02-13T18:02:45.299Z,10.00
2023-02-13T18:05:12.496Z,8.70
2023-02-13T18:07:42.914Z,13.23
2023-02-13T18:10:19.369Z,11.37
2023-02-13T18:12:48.046Z,11.57
2023-02-13T18:15:15.594Z,10.50
2023-02-13T18:17:43.551Z,13.23
2023-02-13T18:20:17.543Z,12.17
2023-02-13T18:22:45.481Z,12.47
2023-02-13T18:25:13.808Z,10.03
2023-02-13T18:27:41.035Z,16.60
2023-02-13T18:30:09.869Z,12.03
2023-02-13T18:32:37.578Z,10.97
2023-02-13T18:35:05.004Z,10.90
2023-02-13T18:37:34.431Z,11.40
2023-02-13T18:40:01.827Z,12.70
2023-02-13T18:42:30.532Z,15.10
2023-02-13T18:45:00.859Z,15.57
2023-02-13T18:47:29.373Z,12.90
2023-02-13T18:49:57.834Z,13.50
2023-02-13T18:52:25.169Z,13.33
2023-02-13T18:54:52.368Z,13.77
2023-02-13T18:57:20.183Z,12.87
2023-02-13T18:59:47.355Z,17.27
2023-02-13T19:02:16.323Z,15.83
2023-02-13T19:04:43.597Z,19.07
2023-02-13T19:07:13.831Z,22.33
2023-02-13T19:09:41.349Z,15.97
2023-02-13T19:12:08.935Z,28.00
2023-02-13T19:14:36.279Z,23.27
2023-02-13T19:17:03.987Z,19.77
2023-02-13T19:19:34.700Z,18.63
2023-02-13T19:22:02.870Z,16.40
2023-02-13T19:24:30.238Z,16.17
2023-02-13T19:26:57.475Z,12.10
2023-02-13T19:29:24.821Z,13.27
2023-02-13T19:31:52.617Z,14.60
2023-02-13T19:34:19.902Z,13.00
2023-02-13T19:36:47.451Z,12.63
2023-02-13T19:39:14.841Z,15.77
2023-02-13T19:41:42.133Z,14.87
2023-02-13T19:44:11.569Z,17.23
2023-02-13T19:46:39.375Z,13.40
2023-02-13T19:49:07.177Z,12.17
2023-02-13T19:51:35.379Z,11.27
2023-02-13T19:54:11.223Z,11.63
2023-02-13T19:56:39.754Z,14.43
2023-02-13T19:59:09.164Z,16.47
2023-02-13T20:01:36.451Z,14.60
2023-02-13T20:04:03.604Z,15.07
2023-02-13T20:06:35.104Z,13.70
2023-02-13T20:09:07.303Z,9.80
2023-02-13T20:11:34.806Z,15.50
2023-02-13T20:14:04.103Z,10.70
2023-02-13T20:16:35.486Z,11.47
2023-02-13T20:19:07.871Z,11.23
2023-02-13T20:21:37.499Z,9.60
2023-02-13T20:24:06.362Z,9.77
2023-02-13T20:26:34.774Z,11.23
2023-02-13T20:29:03.949Z,11.83
2023-02-13T20:31:35.838Z,11.30
2023-02-13T20:34:06.933Z,11.90
2023-02-13T20:36:35.318Z,11.10
2023-02-13T20:39:07.048Z,11.93
2023-02-13T20:41:37.992Z,10.40
2023-02-13T20:44:10.380Z,11.53
2023-02-13T20:46:40.408Z,11.37
2023-02-13T20:49:09.043Z,11.23
2023-02-13T20:51:36.403Z,13.93
2023-02-13T20:54:05.343Z,14.33
2023-02-13T20:56:32.767Z,14.27
2023-02-13T20:59:01.282Z,16.50
2023-02-13T21:01:32.395Z,11.43
2023-02-13T21:04:00.329Z,11.57
2023-02-13T21:06:33.813Z,16.53
2023-02-13T21:09:02.423Z,13.00
2023-02-13T21:11:30.062Z,12.80
2023-02-13T21:13:58.367Z,18.73
2023-02-13T21:16:28.554Z,27.57
2023-02-13T21:18:58.857Z,27.20
2023-02-13T21:21:29.525Z,30.27
2023-02-13T21:23:59.251Z,15.90
2023-02-13T21:26:28.685Z,13.20
2023-02-13T21:28:56.440Z,14.03
2023-02-13T21:31:33.363Z,12.60
2023-02-13T21:34:07.180Z,12.13
2023-02-13T21:36:35.725Z,12.50
2023-02-13T21:39:04.184Z,11.93
2023-02-13T21:41:31.642Z,13.70
2023-02-13T21:43:59.911Z,11.20
2023-02-13T21:46:30.048Z,13.57
2023-02-13T21:49:02.426Z,11.07
2023-02-13T21:51:32.273Z,10.20
2023-02-13T21:54:01.375Z,12.37
2023-02-13T21:56:31.984Z,11.43
2023-02-13T21:59:00.498Z,11.93
2023-02-13T22:01:33.832Z,11.27
2023-02-13T22:04:04.463Z,10.63
2023-02-13T22:06:34.196Z,10.03
2023-02-13T22:09:11.412Z,11.13
2023-02-13T22:11:39.731Z,11.10
2023-02-13T22:14:10.778Z,9.47
2023-02-13T22:16:39.381Z,10.27
2023-02-13T22:19:07.541Z,8.33
2023-02-13T22:21:36.714Z,9.07
2023-02-13T22:24:04.641Z,8.37
2023-02-13T22:26:38.034Z,9.40
2023-02-13T22:29:11.280Z,8.70
2023-02-13T22:31:39.006Z,8.30
2023-02-13T22:34:06.887Z,9.27
2023-02-13T22:36:39.393Z,9.37
2023-02-13T22:39:09.004Z,9.03
2023-02-13T22:41:37.452Z,7.80
2023-02-13T22:44:06.190Z,7.63
2023-02-13T22:46:34.870Z,10.67
2023-02-13T22:49:02.233Z,6.97
2023-02-13T22:51:33.350Z,8.37
2023-02-13T22:54:00.974Z,9.80
2023-02-13T22:56:29.942Z,7.97
2023-02-13T22:58:58.427Z,7.40
2023-02-13T23:01:27.930Z,8.90
2023-02-13T23:03:56.245Z,7.47
2023-02-13T23:06:24.289Z,8.10
2023-02-13T23:08:54.985Z,8.07
2023-02-13T23:11:44.011Z,8.67
2023-02-13T23:14:11.941Z,10.47
2023-02-13T23:16:59.199Z,10.50
2023-02-13T23:19:27.895Z,8.80
2023-02-13T23:21:56.079Z,8.90
2023-02-13T23:24:23.378Z,8.63
2023-02-13T23:26:50.540Z,9.40
2023-02-13T23:29:18.432Z,9.13
2023-02-13T23:31:45.807Z,9.17
2023-02-13T23:34:13.112Z,6.80
2023-02-13T23:36:40.369Z,8.43
2023-02-13T23:39:07.556Z,7.27
2023-02-13T23:41:34.765Z,7.67
2023-02-13T23:44:02.076Z,7.03
2023-02-13T23:46:29.485Z,6.63
2023-02-13T23:48:56.764Z,7.80
2023-02-13T23:51:25.787Z,6.77
2023-02-13T23:53:56.354Z,6.47
2023-02-13T23:56:25.491Z,6.43
2023-02-13T23:58:53.641Z,7.83
